createdAt,value
2023-03-23T15:59:44.381Z,17.20
2023-03-23T16:02:21.289Z,17.10
2023-03-23T16:04:50.605Z,17.00
2023-03-23T16:07:21.103Z,17.10
2023-03-23T16:09:49.929Z,16.90
2023-03-23T16:12:20.001Z,16.80
2023-03-23T16:14:48.459Z,16.70
2023-03-23T16:17:20.276Z,16.60
2023-03-23T16:19:48.713Z,16.50
2023-03-23T16:22:18.123Z,16.50
2023-03-23T16:24:47.423Z,16.40
2023-03-23T16:27:16.148Z,16.30
2023-03-23T16:30:02.105Z,16.30
2023-03-23T16:35:01.235Z,16.20
2023-03-23T16:37:33.623Z,16.30
2023-03-23T16:40:03.390Z,16.30
2023-03-23T16:42:34.270Z,16.30
2023-03-23T16:45:11.648Z,16.20
2023-03-23T16:47:40.877Z,16.20
2023-03-23T16:50:14.235Z,16.20
2023-03-23T16:52:46.302Z,16.20
2023-03-23T16:55:20.774Z,15.90
2023-03-23T16:57:56.151Z,16.00
2023-03-23T17:00:39.655Z,15.90
2023-03-23T17:03:08.846Z,15.90
2023-03-23T17:05:38.640Z,15.80
2023-03-23T17:08:07.929Z,15.80
2023-03-23T17:10:39.107Z,15.70
2023-03-23T17:13:07.980Z,15.80
2023-03-23T17:15:40.683Z,15.70
2023-03-23T17:18:12.483Z,15.70
2023-03-23T17:20:41.064Z,15.70
2023-03-23T17:23:09.977Z,15.80
2023-03-23T17:25:38.444Z,15.70
2023-03-23T17:28:07.645Z,15.70
2023-03-23T17:30:36.389Z,15.80
2023-03-23T17:33:10.450Z,15.80
2023-03-23T17:35:42.087Z,15.80
2023-03-23T17:38:10.985Z,15.80
2023-03-23T17:40:43.732Z,15.80
2023-03-23T17:43:13.041Z,15.70
2023-03-23T17:45:49.575Z,15.70
2023-03-23T17:48:33.510Z,15.70
2023-03-23T17:54:23.629Z,15.60
2023-03-23T17:57:08.965Z,15.70
2023-03-23T17:59:45.530Z,15.60
2023-03-23T18:02:16.373Z,15.60
2023-03-23T18:04:50.480Z,15.60
2023-03-23T18:07:24.462Z,15.50
2023-03-23T18:09:59.037Z,15.50
2023-03-23T18:12:32.696Z,15.40
2023-03-23T18:15:07.898Z,15.20
2023-03-23T18:23:29.166Z,15.10
2023-03-23T18:25:57.199Z,15.00
2023-03-23T18:28:25.956Z,15.10
2023-03-23T18:30:54.617Z,14.80
2023-03-23T18:33:25.209Z,14.90
2023-03-23T18:36:01.478Z,14.80
2023-03-23T18:38:32.003Z,14.80
2023-03-23T18:41:02.690Z,14.70
2023-03-23T18:43:31.002Z,14.70
2023-03-23T18:46:02.015Z,14.70
2023-03-23T18:48:30.210Z,14.70
2023-03-23T18:51:00.583Z,14.70
2023-03-23T18:53:30.727Z,14.90
2023-03-23T18:56:06.893Z,14.70
2023-03-23T18:58:35.255Z,14.60
2023-03-23T19:01:05.288Z,14.50
2023-03-23T19:03:34.176Z,14.60
2023-03-23T19:06:04.759Z,14.50
2023-03-23T19:08:36.126Z,14.60
2023-03-23T19:11:08.293Z,14.50
2023-03-23T19:13:38.812Z,14.60
2023-03-23T19:16:13.630Z,14.50
2023-03-23T19:18:41.797Z,14.50
2023-03-23T19:21:15.602Z,14.50
2023-03-23T19:23:55.719Z,14.50
2023-03-23T19:26:33.393Z,14.40
2023-03-23T19:29:25.279Z,14.40
2023-03-23T19:31:57.385Z,14.40
2023-03-23T19:34:27.521Z,14.30
2023-03-23T19:37:04.188Z,14.20
2023-03-23T19:39:36.814Z,14.30
2023-03-23T19:42:05.299Z,14.20
2023-03-23T19:44:33.694Z,14.20
2023-03-23T19:47:02.921Z,14.20
2023-03-23T19:49:31.367Z,14.20
2023-03-23T19:52:08.014Z,14.10
2023-03-23T19:54:42.802Z,14.10
2023-03-23T19:57:16.623Z,14.10
2023-03-23T19:59:45.132Z,14.10
2023-03-23T20:02:13.822Z,14.00
2023-03-23T20:04:43.435Z,14.10
2023-03-23T20:07:12.627Z,14.00
2023-03-23T20:09:42.659Z,14.00
2023-03-23T20:12:10.967Z,14.00
2023-03-23T20:14:45.059Z,14.00
2023-03-23T20:17:14.613Z,14.00
2023-03-23T20:19:43.129Z,14.00
2023-03-23T20:22:11.440Z,13.90
2023-03-23T20:24:39.659Z,14.00
2023-03-23T20:27:09.423Z,13.90
2023-03-23T20:29:37.657Z,13.90
2023-03-23T20:32:07.528Z,13.90
2023-03-23T20:34:36.677Z,13.90
2023-03-23T20:37:04.994Z,13.90
2023-03-23T20:44:44.887Z,13.90
2023-03-23T20:47:12.858Z,13.90
2023-03-23T20:49:41.926Z,13.90
2023-03-23T20:52:12.010Z,13.90
2023-03-23T20:54:40.826Z,13.80
2023-03-23T20:57:09.361Z,13.90
2023-03-23T20:59:37.880Z,13.80
2023-03-23T21:02:18.874Z,14.00
2023-03-23T21:04:47.653Z,13.90
2023-03-23T21:07:27.573Z,13.80
2023-03-23T21:09:58.663Z,13.80
2023-03-23T21:12:27.236Z,13.80
2023-03-23T21:14:56.886Z,13.80
2023-03-23T21:17:29.139Z,13.70
2023-03-23T21:19:58.078Z,13.80
2023-03-23T21:22:26.466Z,13.80
2023-03-23T21:24:59.069Z,13.80
2023-03-23T21:27:29.685Z,13.70
2023-03-23T21:29:59.469Z,13.80
2023-03-23T21:32:29.796Z,13.70
2023-03-23T21:35:02.304Z,13.70
2023-03-23T21:37:33.760Z,13.70
2023-03-23T21:40:02.143Z,13.70
2023-03-23T21:42:33.320Z,13.70
2023-03-23T21:45:02.906Z,13.70
2023-03-23T21:47:32.780Z,13.70
2023-03-23T21:50:02.009Z,13.70
2023-03-23T21:52:31.222Z,13.60
2023-03-23T21:54:59.639Z,13.60
2023-03-23T21:57:28.398Z,13.60
2023-03-23T21:59:56.844Z,13.60
2023-03-23T22:02:27.428Z,13.60
2023-03-23T22:05:00.354Z,13.60
2023-03-23T22:07:31.577Z,13.50
2023-03-23T22:09:59.744Z,13.50
2023-03-23T22:12:28.021Z,13.40
2023-03-23T22:14:57.121Z,13.40
2023-03-23T22:17:25.341Z,13.40
2023-03-23T22:19:54.022Z,13.40
2023-03-23T22:22:23.769Z,13.40
2023-03-23T22:24:52.575Z,13.30
2023-03-23T22:27:20.783Z,13.20
2023-03-23T22:29:48.994Z,13.30
2023-03-23T22:32:17.255Z,13.40
2023-03-23T22:34:47.429Z,13.20
2023-03-23T22:37:16.396Z,13.20
2023-03-23T22:39:46.182Z,13.20
2023-03-23T22:42:16.251Z,13.20
2023-03-23T22:44:44.574Z,13.20
2023-03-23T22:47:13.039Z,13.20
2023-03-23T22:49:41.450Z,13.20
2023-03-23T22:52:09.988Z,13.20
2023-03-23T22:54:38.422Z,13.20
2023-03-23T22:57:09.249Z,13.20
2023-03-23T22:59:37.427Z,13.20
2023-03-23T23:02:05.859Z,13.20
2023-03-23T23:04:34.496Z,13.20
2023-03-23T23:07:12.938Z,13.40
2023-03-23T23:09:42.447Z,13.30
2023-03-23T23:12:13.884Z,13.30
2023-03-23T23:14:44.764Z,13.30
2023-03-23T23:17:13.289Z,13.30
2023-03-23T23:19:41.813Z,13.40
2023-03-23T23:22:19.004Z,13.30
2023-03-23T23:24:48.186Z,13.30
2023-03-23T23:27:18.240Z,13.30
2023-03-23T23:29:46.497Z,13.30
2023-03-23T23:32:14.996Z,13.30
2023-03-23T23:34:43.184Z,13.20
2023-03-23T23:37:11.318Z,13.30
2023-03-23T23:39:41.425Z,13.30
2023-03-23T23:42:10.437Z,13.30
2023-03-23T23:44:40.685Z,13.30
2023-03-23T23:47:09.028Z,13.30
2023-03-23T23:49:37.454Z,13.40
2023-03-23T23:52:08.063Z,13.30
2023-03-23T23:54:37.437Z,13.40
2023-03-23T23:57:07.203Z,13.30
2023-03-23T23:59:36.326Z,13.30
